PWSweather.com
Personal Weather Stations
Station Observations
KILMORRI1
Goose Lake, Morris, IL 60450

Goose LakeMorris, IL 60450

Lat: 41.34, Lon: -88.3

Elevation: 523

Station Type:

www.gooselakeweather.com

High Low Average
Temperature 88.1°F31.2°C 68.7°F20.4°C 77.5°F25.3°C
Dew Point 79.6°F26.4°C 67.2°F19.6°C 73.6°F23.1°C
Winds 13.8 mph 22.2 kmh Calm Calm 3.0 mph SSE4.8 kmh SSE
Wind Gusts 19.6 mph31.5 kmh -- 5.0 mph8.0 kmh
Humidity 97% 72% 88%
Pressure 30.11 in1019.6 mb 29.89 in1012.2 mb -
Precipitation 0.17 in4.3 mm - -
Hour Temp Dew Point Humidity Winds Wind Gusts Pressure Precip Precip Rate Daily Precip Total
12:00 AM 68.8°F20.4°C 67.6°F19.8°C 96% Calm Calm 1.2 mph1.9 kmh 30.05 in1017.6 mb - 0.00 in0.0 mm 0.00 in0.0 mm
12:10 AM 68.9°F20.5°C 68.0°F20.0°C 97% Calm Calm -- 30.05 in1017.6 mb - 0.00 in0.0 mm 0.00 in0.0 mm
12:20 AM 69.0°F20.6°C 68.1°F20.1°C 97% 1.2 mph SSE1.9 kmh SSE 2.3 mph3.7 kmh 30.03 in1016.9 mb - 0.00 in0.0 mm 0.00 in0.0 mm
12:30 AM 69.0°F20.6°C 68.1°F20.1°C 97% 1.2 mph SSE1.9 kmh SSE 3.5 mph5.6 kmh 30.02 in1016.6 mb - 0.00 in0.0 mm 0.00 in0.0 mm
12:40 AM 69.1°F20.6°C 68.2°F20.1°C 97% 2.3 mph SSE3.7 kmh SSE 3.5 mph5.6 kmh 30.00 in1015.9 mb - 0.00 in0.0 mm 0.00 in0.0 mm
12:50 AM 69.0°F20.6°C 68.1°F20.1°C 97% 3.5 mph SSW5.6 kmh SSW 6.9 mph11.1 kmh 29.96 in1014.6 mb - 0.00 in0.0 mm 0.00 in0.0 mm
01:00 AM 69.0°F20.6°C 67.8°F19.9°C 96% 1.2 mph S1.9 kmh S 3.5 mph5.6 kmh 29.97 in1014.9 mb - 0.00 in0.0 mm 0.00 in0.0 mm
01:10 AM 68.9°F20.5°C 67.7°F19.8°C 96% 1.2 mph S1.9 kmh S 3.5 mph5.6 kmh 29.97 in1014.9 mb - 0.00 in0.0 mm 0.00 in0.0 mm
01:20 AM 68.7°F20.4°C 67.5°F19.7°C 96% 3.5 mph S5.6 kmh S 4.6 mph7.4 kmh 29.98 in1015.2 mb - 0.00 in0.0 mm 0.00 in0.0 mm
01:30 AM 68.8°F20.4°C 67.6°F19.8°C 96% 3.5 mph S5.6 kmh S 5.8 mph9.3 kmh 29.97 in1014.9 mb - 0.00 in0.0 mm 0.00 in0.0 mm
01:40 AM 68.7°F20.4°C 67.5°F19.7°C 96% 2.3 mph SSW3.7 kmh SSW 4.6 mph7.4 kmh 29.98 in1015.2 mb - 0.00 in0.0 mm 0.00 in0.0 mm
01:50 AM 68.9°F20.5°C 67.7°F19.8°C 96% 4.6 mph SW7.4 kmh SW 6.9 mph11.1 kmh 29.97 in1014.9 mb - 0.00 in0.0 mm 0.00 in0.0 mm
02:00 AM 69.0°F20.6°C 67.8°F19.9°C 96% 3.5 mph SSW5.6 kmh SSW 11.5 mph18.5 kmh 29.97 in1014.9 mb - 0.00 in0.0 mm 0.00 in0.0 mm
02:10 AM 69.0°F20.6°C 67.8°F19.9°C 96% 3.5 mph S5.6 kmh S 6.9 mph11.1 kmh 29.97 in1014.9 mb - 0.00 in0.0 mm 0.00 in0.0 mm
02:20 AM 69.0°F20.6°C 67.5°F19.7°C 95% 4.6 mph SSW7.4 kmh SSW 10.4 mph16.7 kmh 29.96 in1014.6 mb - 0.00 in0.0 mm 0.00 in0.0 mm
02:30 AM 68.9°F20.5°C 67.4°F19.7°C 95% 5.8 mph S9.3 kmh S 10.4 mph16.7 kmh 29.96 in1014.6 mb - 0.00 in0.0 mm 0.00 in0.0 mm
02:40 AM 68.8°F20.4°C 67.3°F19.6°C 95% 4.6 mph SSW7.4 kmh SSW 11.5 mph18.5 kmh 29.95 in1014.2 mb - 0.00 in0.0 mm 0.00 in0.0 mm
02:50 AM 69.0°F20.6°C 67.5°F19.7°C 95% 4.6 mph SSW7.4 kmh SSW 10.4 mph16.7 kmh 29.95 in1014.2 mb - 0.00 in0.0 mm 0.00 in0.0 mm
03:00 AM 69.0°F20.6°C 67.5°F19.7°C 95% 4.6 mph SSW7.4 kmh SSW 6.9 mph11.1 kmh 29.94 in1013.9 mb - 0.00 in0.0 mm 0.00 in0.0 mm
03:10 AM 69.0°F20.6°C 67.5°F19.7°C 95% 4.6 mph SSW7.4 kmh SSW 10.4 mph16.7 kmh 29.94 in1013.9 mb - 0.00 in0.0 mm 0.00 in0.0 mm
03:20 AM 69.0°F20.6°C 67.5°F19.7°C 95% 4.6 mph SSW7.4 kmh SSW 6.9 mph11.1 kmh 29.93 in1013.5 mb - 0.00 in0.0 mm 0.00 in0.0 mm
03:30 AM 69.0°F20.6°C 67.5°F19.7°C 95% 4.6 mph SSW7.4 kmh SSW 6.9 mph11.1 kmh 29.93 in1013.5 mb - 0.00 in0.0 mm 0.00 in0.0 mm
03:40 AM 69.0°F20.6°C 67.2°F19.6°C 94% 4.6 mph SSW7.4 kmh SSW 8.1 mph13.0 kmh 29.93 in1013.5 mb - 0.00 in0.0 mm 0.00 in0.0 mm
03:50 AM 69.1°F20.6°C 67.3°F19.6°C 94% 5.8 mph SSW9.3 kmh SSW 6.9 mph11.1 kmh 29.94 in1013.9 mb - 0.00 in0.0 mm 0.00 in0.0 mm
04:00 AM 69.2°F20.7°C 67.4°F19.7°C 94% 2.3 mph SSW3.7 kmh SSW 5.8 mph9.3 kmh 29.94 in1013.9 mb - 0.00 in0.0 mm 0.00 in0.0 mm
04:10 AM 69.2°F20.7°C 67.4°F19.7°C 94% 2.3 mph SSW3.7 kmh SSW 3.5 mph5.6 kmh 29.95 in1014.2 mb - 0.00 in0.0 mm 0.00 in0.0 mm
04:20 AM 69.2°F20.7°C 67.4°F19.7°C 94% 2.3 mph S3.7 kmh S 5.8 mph9.3 kmh 29.95 in1014.2 mb - 0.00 in0.0 mm 0.00 in0.0 mm
04:30 AM 69.2°F20.7°C 67.4°F19.7°C 94% 2.3 mph S3.7 kmh S 6.9 mph11.1 kmh 29.95 in1014.2 mb - 0.00 in0.0 mm 0.00 in0.0 mm
04:40 AM 69.1°F20.6°C 67.3°F19.6°C 94% 1.2 mph SSW1.9 kmh SSW 2.3 mph3.7 kmh 29.96 in1014.6 mb - 0.00 in0.0 mm 0.00 in0.0 mm
04:50 AM 69.0°F20.6°C 67.5°F19.7°C 95% 1.2 mph SSW1.9 kmh SSW 2.3 mph3.7 kmh 29.96 in1014.6 mb - 0.00 in0.0 mm 0.00 in0.0 mm
05:00 AM 69.1°F20.6°C 67.3°F19.6°C 94% 2.3 mph SSW3.7 kmh SSW 3.5 mph5.6 kmh 29.95 in1014.2 mb - 0.00 in0.0 mm 0.00 in0.0 mm
05:10 AM 69.0°F20.6°C 67.5°F19.7°C 95% Calm Calm 1.2 mph1.9 kmh 29.97 in1014.9 mb - 0.00 in0.0 mm 0.00 in0.0 mm
05:20 AM 68.8°F20.4°C 67.3°F19.6°C 95% 2.3 mph SSW3.7 kmh SSW 3.5 mph5.6 kmh 29.96 in1014.6 mb - 0.00 in0.0 mm 0.00 in0.0 mm
05:30 AM 68.8°F20.4°C 67.3°F19.6°C 95% 2.3 mph SE3.7 kmh SE 3.5 mph5.6 kmh 29.96 in1014.6 mb - 0.00 in0.0 mm 0.00 in0.0 mm
05:40 AM 68.8°F20.4°C 67.6°F19.8°C 96% 2.3 mph SE3.7 kmh SE 3.5 mph5.6 kmh 29.95 in1014.2 mb - 0.00 in0.0 mm 0.00 in0.0 mm
05:50 AM 68.9°F20.5°C 67.4°F19.7°C 95% 2.3 mph ESE3.7 kmh ESE 3.5 mph5.6 kmh 29.96 in1014.6 mb - 0.00 in0.0 mm 0.00 in0.0 mm
06:00 AM 69.1°F20.6°C 67.6°F19.8°C 95% Calm Calm 2.3 mph3.7 kmh 29.98 in1015.2 mb - 0.00 in0.0 mm 0.00 in0.0 mm
06:10 AM 69.1°F20.6°C 68.0°F20.0°C 96% 1.2 mph ENE1.9 kmh ENE 3.5 mph5.6 kmh 29.97 in1014.9 mb - 0.00 in0.0 mm 0.00 in0.0 mm
06:20 AM 69.1°F20.6°C 67.9°F19.9°C 96% 1.2 mph ENE1.9 kmh ENE 2.3 mph3.7 kmh 29.97 in1014.9 mb - 0.00 in0.0 mm 0.00 in0.0 mm
06:30 AM 69.1°F20.6°C 67.9°F19.9°C 96% 1.2 mph ENE1.9 kmh ENE 3.5 mph5.6 kmh 29.99 in1015.6 mb - 0.00 in0.0 mm 0.00 in0.0 mm
06:40 AM 69.5°F20.8°C 68.0°F20.0°C 95% 5.8 mph NNE9.3 kmh NNE 9.2 mph14.8 kmh 30.00 in1015.9 mb - 0.00 in0.0 mm 0.00 in0.0 mm
06:50 AM 69.5°F20.8°C 68.0°F20.0°C 95% Calm Calm 3.5 mph5.6 kmh 30.01 in1016.3 mb - 0.00 in0.0 mm 0.00 in0.0 mm
07:00 AM 69.7°F20.9°C 68.2°F20.1°C 95% 2.3 mph E3.7 kmh E 3.5 mph5.6 kmh 30.00 in1015.9 mb - 0.00 in0.0 mm 0.00 in0.0 mm
07:10 AM 69.9°F21.1°C 68.4°F20.2°C 95% 2.3 mph N3.7 kmh N 3.5 mph5.6 kmh 30.02 in1016.6 mb - 0.00 in0.0 mm 0.00 in0.0 mm
07:20 AM 69.9°F21.1°C 68.4°F20.2°C 95% 2.3 mph E3.7 kmh E 3.5 mph5.6 kmh 30.02 in1016.6 mb - 0.00 in0.0 mm 0.00 in0.0 mm
07:30 AM 69.7°F20.9°C 68.2°F20.1°C 95% 1.2 mph E1.9 kmh E 3.5 mph5.6 kmh 30.02 in1016.6 mb - 0.00 in0.0 mm 0.00 in0.0 mm
07:40 AM 69.7°F20.9°C 68.5°F20.3°C 96% Calm Calm -- 30.03 in1016.9 mb - 0.01 in0.3 mm 0.01 in0.3 mm
07:50 AM 69.9°F21.1°C 68.8°F20.4°C 96% 13.8 mph NW22.2 kmh NW 19.6 mph31.5 kmh 30.11 in1019.6 mb - 0.01 in0.3 mm 0.02 in0.5 mm
08:00 AM 70.6°F21.4°C 68.8°F20.4°C 94% 1.2 mph NW1.9 kmh NW 2.3 mph3.7 kmh 30.06 in1017.9 mb - 0.09 in2.3 mm 0.11 in2.8 mm
08:10 AM 70.0°F21.1°C 68.5°F20.3°C 95% Calm Calm -- 30.07 in1018.3 mb - 0.02 in0.5 mm 0.13 in3.3 mm
08:20 AM 69.7°F20.9°C 68.5°F20.3°C 96% 3.5 mph S5.6 kmh S 5.8 mph9.3 kmh 30.06 in1017.9 mb - 0.01 in0.3 mm 0.14 in3.6 mm
08:30 AM 69.7°F20.9°C 68.5°F20.3°C 96% 3.5 mph SW5.6 kmh SW 3.5 mph5.6 kmh 30.06 in1017.9 mb - 0.01 in0.3 mm 0.15 in3.8 mm
08:40 AM 69.7°F20.9°C 68.5°F20.3°C 96% 3.5 mph S5.6 kmh S 8.1 mph13.0 kmh 30.05 in1017.6 mb - 0.01 in0.3 mm 0.16 in4.1 mm
08:50 AM 69.7°F20.9°C 68.5°F20.3°C 96% 3.5 mph S5.6 kmh S 4.6 mph7.4 kmh 30.04 in1017.3 mb - 0.00 in0.0 mm 0.16 in4.1 mm
09:00 AM 69.7°F20.9°C 68.8°F20.4°C 97% 2.3 mph SSW3.7 kmh SSW 4.6 mph7.4 kmh 30.02 in1016.6 mb - 0.00 in0.0 mm 0.16 in4.1 mm
09:10 AM 69.9°F21.1°C 69.0°F20.6°C 97% 3.5 mph SSW5.6 kmh SSW 8.1 mph13.0 kmh 30.00 in1015.9 mb - 0.00 in0.0 mm 0.16 in4.1 mm
09:20 AM 70.2°F21.2°C 69.3°F20.7°C 97% 4.6 mph SSE7.4 kmh SSE 6.9 mph11.1 kmh 29.99 in1015.6 mb - 0.00 in0.0 mm 0.16 in4.1 mm
09:30 AM 70.7°F21.5°C 69.5°F20.8°C 96% 5.8 mph S9.3 kmh S 9.2 mph14.8 kmh 29.98 in1015.2 mb - 0.00 in0.0 mm 0.16 in4.1 mm
09:40 AM 71.1°F21.7°C 69.9°F21.1°C 96% 4.6 mph S7.4 kmh S 10.4 mph16.7 kmh 29.97 in1014.9 mb - 0.00 in0.0 mm 0.16 in4.1 mm
09:50 AM 71.9°F22.2°C 70.7°F21.5°C 96% 4.6 mph SSW7.4 kmh SSW 6.9 mph11.1 kmh 29.96 in1014.6 mb - 0.01 in0.3 mm 0.17 in4.3 mm
10:00 AM 73.1°F22.8°C 71.6°F22.0°C 95% 3.5 mph S5.6 kmh S 5.8 mph9.3 kmh 29.96 in1014.6 mb - 0.00 in0.0 mm 0.17 in4.3 mm
10:10 AM 73.6°F23.1°C 71.8°F22.1°C 94% 4.6 mph S7.4 kmh S 8.1 mph13.0 kmh 29.95 in1014.2 mb - 0.00 in0.0 mm 0.17 in4.3 mm
10:20 AM 74.9°F23.8°C 73.4°F23.0°C 95% 2.3 mph S3.7 kmh S 5.8 mph9.3 kmh 29.94 in1013.9 mb - 0.00 in0.0 mm 0.17 in4.3 mm
10:30 AM 75.8°F24.3°C 73.4°F23.0°C 92% 5.8 mph SSW9.3 kmh SSW 8.1 mph13.0 kmh 29.94 in1013.9 mb - 0.00 in0.0 mm 0.17 in4.3 mm
10:40 AM 77.6°F25.3°C 74.1°F23.4°C 89% 6.9 mph SSW11.1 kmh SSW 11.5 mph18.5 kmh 29.94 in1013.9 mb - 0.00 in0.0 mm 0.17 in4.3 mm
10:50 AM 79.1°F26.2°C 75.9°F24.4°C 90% 4.6 mph SW7.4 kmh SW 8.1 mph13.0 kmh 29.94 in1013.9 mb - 0.00 in0.0 mm 0.17 in4.3 mm
11:00 AM 80.9°F27.2°C 76.7°F24.8°C 87% 3.5 mph SSW5.6 kmh SSW 5.8 mph9.3 kmh 29.93 in1013.5 mb - 0.00 in0.0 mm 0.17 in4.3 mm
11:10 AM 82.9°F28.3°C 77.9°F25.5°C 85% 6.9 mph SSW11.1 kmh SSW 11.5 mph18.5 kmh 29.93 in1013.5 mb - 0.00 in0.0 mm 0.17 in4.3 mm
11:20 AM 83.9°F28.8°C 77.1°F25.1°C 80% 8.1 mph SW13.0 kmh SW 8.1 mph13.0 kmh 29.92 in1013.2 mb - 0.00 in0.0 mm 0.17 in4.3 mm
11:30 AM 85.1°F29.5°C 77.8°F25.4°C 79% 5.8 mph SSW9.3 kmh SSW 11.5 mph18.5 kmh 29.92 in1013.2 mb - 0.00 in0.0 mm 0.17 in4.3 mm
11:40 AM 85.1°F29.5°C 77.1°F25.1°C 77% 10.4 mph SW16.7 kmh SW 13.8 mph22.2 kmh 29.92 in1013.2 mb - 0.00 in0.0 mm 0.17 in4.3 mm
11:50 AM 84.3°F29.1°C 76.7°F24.8°C 78% 5.8 mph SW9.3 kmh SW 4.6 mph7.4 kmh 29.92 in1013.2 mb - 0.00 in0.0 mm 0.17 in4.3 mm
12:00 PM 85.3°F29.6°C 77.3°F25.2°C 77% 10.4 mph SW16.7 kmh SW 18.4 mph29.6 kmh 29.91 in1012.9 mb - 0.00 in0.0 mm 0.17 in4.3 mm
12:10 PM 86.0°F30.0°C 78.0°F25.6°C 77% 6.9 mph SW11.1 kmh SW 11.5 mph18.5 kmh 29.91 in1012.9 mb - 0.00 in0.0 mm 0.17 in4.3 mm
12:20 PM 86.2°F30.1°C 77.3°F25.2°C 75% 5.8 mph SW9.3 kmh SW 11.5 mph18.5 kmh 29.91 in1012.9 mb - 0.00 in0.0 mm 0.17 in4.3 mm
12:30 PM 86.8°F30.4°C 78.3°F25.7°C 76% 10.4 mph WSW16.7 kmh WSW 15.0 mph24.1 kmh 29.92 in1013.2 mb - 0.00 in0.0 mm 0.17 in4.3 mm
12:40 PM 86.7°F30.4°C 79.0°F26.1°C 78% 8.1 mph SW13.0 kmh SW 13.8 mph22.2 kmh 29.92 in1013.2 mb - 0.00 in0.0 mm 0.17 in4.3 mm
12:50 PM 86.3°F30.2°C 77.8°F25.4°C 76% 6.9 mph SW11.1 kmh SW 9.2 mph14.8 kmh 29.92 in1013.2 mb - 0.00 in0.0 mm 0.17 in4.3 mm
01:00 PM 86.5°F30.3°C 77.6°F25.3°C 75% 6.9 mph SW11.1 kmh SW 9.2 mph14.8 kmh 29.91 in1012.9 mb - 0.00 in0.0 mm 0.17 in4.3 mm
01:10 PM 86.5°F30.3°C 77.6°F25.3°C 75% 8.1 mph SW13.0 kmh SW 12.7 mph20.4 kmh 29.91 in1012.9 mb - 0.00 in0.0 mm 0.17 in4.3 mm
01:20 PM 87.0°F30.6°C 76.9°F24.9°C 72% 9.2 mph SW14.8 kmh SW 16.1 mph25.9 kmh 29.91 in1012.9 mb - 0.00 in0.0 mm 0.17 in4.3 mm
01:30 PM 85.8°F29.9°C 77.4°F25.2°C 76% 9.2 mph SW14.8 kmh SW 11.5 mph18.5 kmh 29.91 in1012.9 mb - 0.00 in0.0 mm 0.17 in4.3 mm
01:40 PM 85.2°F29.6°C 77.1°F25.1°C 77% 8.1 mph SW13.0 kmh SW 9.2 mph14.8 kmh 29.90 in1012.5 mb - 0.00 in0.0 mm 0.17 in4.3 mm
01:50 PM 85.6°F29.8°C 78.4°F25.8°C 79% 6.9 mph WSW11.1 kmh WSW 9.2 mph14.8 kmh 29.90 in1012.5 mb - 0.00 in0.0 mm 0.17 in4.3 mm
02:00 PM 85.6°F29.8°C 77.6°F25.3°C 77% 5.8 mph WSW9.3 kmh WSW 11.5 mph18.5 kmh 29.90 in1012.5 mb - 0.00 in0.0 mm 0.17 in4.3 mm
02:10 PM 85.5°F29.7°C 78.2°F25.7°C 79% 6.9 mph W11.1 kmh W 9.2 mph14.8 kmh 29.90 in1012.5 mb - 0.00 in0.0 mm 0.17 in4.3 mm
02:20 PM 84.9°F29.4°C 78.0°F25.6°C 80% 4.6 mph SW7.4 kmh SW 6.9 mph11.1 kmh 29.90 in1012.5 mb - 0.00 in0.0 mm 0.17 in4.3 mm
02:30 PM 84.2°F29.0°C 77.8°F25.4°C 81% Calm Calm 1.2 mph1.9 kmh 29.90 in1012.5 mb - 0.00 in0.0 mm 0.17 in4.3 mm
02:40 PM 83.9°F28.8°C 77.4°F25.2°C 81% 3.5 mph WSW5.6 kmh WSW 8.1 mph13.0 kmh 29.90 in1012.5 mb - 0.00 in0.0 mm 0.17 in4.3 mm
02:50 PM 83.6°F28.7°C 77.2°F25.1°C 81% 3.5 mph W5.6 kmh W 5.8 mph9.3 kmh 29.90 in1012.5 mb - 0.00 in0.0 mm 0.17 in4.3 mm
03:00 PM 83.8°F28.8°C 78.1°F25.6°C 83% 2.3 mph WSW3.7 kmh WSW 5.8 mph9.3 kmh 29.90 in1012.5 mb - 0.00 in0.0 mm 0.17 in4.3 mm
03:10 PM 86.1°F30.1°C 79.2°F26.2°C 80% 2.3 mph W3.7 kmh W 3.5 mph5.6 kmh 29.91 in1012.9 mb - 0.00 in0.0 mm 0.17 in4.3 mm
03:20 PM 87.0°F30.6°C 78.1°F25.6°C 75% 4.6 mph W7.4 kmh W 8.1 mph13.0 kmh 29.91 in1012.9 mb - 0.00 in0.0 mm 0.17 in4.3 mm
03:30 PM 87.2°F30.7°C 78.3°F25.7°C 75% 4.6 mph WNW7.4 kmh WNW 5.8 mph9.3 kmh 29.91 in1012.9 mb - 0.00 in0.0 mm 0.17 in4.3 mm
03:40 PM 88.1°F31.2°C 79.2°F26.2°C 75% 5.8 mph NW9.3 kmh NW 6.9 mph11.1 kmh 29.91 in1012.9 mb - 0.00 in0.0 mm 0.17 in4.3 mm
03:50 PM 87.7°F30.9°C 78.8°F26.0°C 75% 5.8 mph NW9.3 kmh NW 9.2 mph14.8 kmh 29.91 in1012.9 mb - 0.00 in0.0 mm 0.17 in4.3 mm
04:00 PM 87.4°F30.8°C 78.5°F25.8°C 75% 3.5 mph WNW5.6 kmh WNW 9.2 mph14.8 kmh 29.91 in1012.9 mb - 0.00 in0.0 mm 0.17 in4.3 mm
04:10 PM 87.1°F30.6°C 78.6°F25.9°C 76% 2.3 mph NW3.7 kmh NW 3.5 mph5.6 kmh 29.90 in1012.5 mb - 0.00 in0.0 mm 0.17 in4.3 mm
04:20 PM 86.9°F30.5°C 78.0°F25.6°C 75% 4.6 mph NNW7.4 kmh NNW 5.8 mph9.3 kmh 29.91 in1012.9 mb - 0.00 in0.0 mm 0.17 in4.3 mm
04:30 PM 86.6°F30.3°C 78.1°F25.6°C 76% 3.5 mph NNW5.6 kmh NNW 4.6 mph7.4 kmh 29.91 in1012.9 mb - 0.00 in0.0 mm 0.17 in4.3 mm
04:40 PM 86.1°F30.1°C 78.4°F25.8°C 78% 2.3 mph NNW3.7 kmh NNW 5.8 mph9.3 kmh 29.91 in1012.9 mb - 0.00 in0.0 mm 0.17 in4.3 mm
04:50 PM 87.0°F30.6°C 78.5°F25.8°C 76% 3.5 mph N5.6 kmh N 9.2 mph14.8 kmh 29.91 in1012.9 mb - 0.00 in0.0 mm 0.17 in4.3 mm
05:00 PM 87.6°F30.9°C 78.7°F25.9°C 75% 4.6 mph NNE7.4 kmh NNE 4.6 mph7.4 kmh 29.90 in1012.5 mb - 0.00 in0.0 mm 0.17 in4.3 mm
05:10 PM 86.9°F30.5°C 78.9°F26.1°C 77% 3.5 mph NNW5.6 kmh NNW 6.9 mph11.1 kmh 29.90 in1012.5 mb - 0.00 in0.0 mm 0.17 in4.3 mm
05:20 PM 87.0°F30.6°C 78.5°F25.8°C 76% 2.3 mph NNW3.7 kmh NNW 3.5 mph5.6 kmh 29.90 in1012.5 mb - 0.00 in0.0 mm 0.17 in4.3 mm
05:30 PM 86.8°F30.4°C 79.1°F26.2°C 78% 1.2 mph NNW1.9 kmh NNW 3.5 mph5.6 kmh 29.89 in1012.2 mb - 0.00 in0.0 mm 0.17 in4.3 mm
05:40 PM 87.1°F30.6°C 79.4°F26.3°C 78% 4.6 mph NNE7.4 kmh NNE 5.8 mph9.3 kmh 29.89 in1012.2 mb - 0.00 in0.0 mm 0.17 in4.3 mm
05:50 PM 86.5°F30.3°C 78.4°F25.8°C 77% Calm Calm 2.3 mph3.7 kmh 29.89 in1012.2 mb - 0.00 in0.0 mm 0.17 in4.3 mm
06:00 PM 86.5°F30.3°C 78.8°F26.0°C 78% 2.3 mph N3.7 kmh N 5.8 mph9.3 kmh 29.89 in1012.2 mb - 0.00 in0.0 mm 0.17 in4.3 mm
06:10 PM 86.5°F30.3°C 79.6°F26.4°C 80% 2.3 mph N3.7 kmh N 3.5 mph5.6 kmh 29.89 in1012.2 mb - 0.00 in0.0 mm 0.17 in4.3 mm
06:20 PM 86.1°F30.1°C 78.4°F25.8°C 78% 4.6 mph NW7.4 kmh NW 5.8 mph9.3 kmh 29.89 in1012.2 mb - 0.00 in0.0 mm 0.17 in4.3 mm
06:30 PM 85.5°F29.7°C 78.3°F25.7°C 79% 1.2 mph NNE1.9 kmh NNE 3.5 mph5.6 kmh 29.89 in1012.2 mb - 0.00 in0.0 mm 0.17 in4.3 mm
06:40 PM 85.0°F29.4°C 78.5°F25.8°C 81% 2.3 mph NE3.7 kmh NE 4.6 mph7.4 kmh 29.89 in1012.2 mb - 0.00 in0.0 mm 0.17 in4.3 mm
06:50 PM 84.6°F29.2°C 78.1°F25.6°C 81% 2.3 mph NE3.7 kmh NE 4.6 mph7.4 kmh 29.89 in1012.2 mb - 0.00 in0.0 mm 0.17 in4.3 mm
07:00 PM 84.5°F29.2°C 78.4°F25.8°C 82% 2.3 mph NNE3.7 kmh NNE 3.5 mph5.6 kmh 29.89 in1012.2 mb - 0.00 in0.0 mm 0.17 in4.3 mm
07:10 PM 84.4°F29.1°C 77.9°F25.5°C 81% Calm Calm 1.2 mph1.9 kmh 29.89 in1012.2 mb - 0.00 in0.0 mm 0.17 in4.3 mm
07:20 PM 84.0°F28.9°C 78.2°F25.7°C 83% Calm Calm 2.3 mph3.7 kmh 29.89 in1012.2 mb - 0.00 in0.0 mm 0.17 in4.3 mm
07:30 PM 83.8°F28.8°C 78.1°F25.6°C 83% Calm Calm -- 29.89 in1012.2 mb - 0.00 in0.0 mm 0.17 in4.3 mm
07:40 PM 82.9°F28.3°C 78.3°F25.7°C 86% Calm Calm -- 29.90 in1012.5 mb - 0.00 in0.0 mm 0.17 in4.3 mm
07:50 PM 82.6°F28.1°C 77.9°F25.5°C 86% Calm Calm -- 29.90 in1012.5 mb - 0.00 in0.0 mm 0.17 in4.3 mm
08:00 PM 82.5°F28.1°C 77.9°F25.5°C 86% Calm Calm 1.2 mph1.9 kmh 29.90 in1012.5 mb - 0.00 in0.0 mm 0.17 in4.3 mm
08:10 PM 82.0°F27.8°C 77.7°F25.4°C 87% Calm Calm -- 29.90 in1012.5 mb - 0.00 in0.0 mm 0.17 in4.3 mm
08:20 PM 81.6°F27.6°C 77.7°F25.4°C 88% Calm Calm -- 29.90 in1012.5 mb - 0.00 in0.0 mm 0.17 in4.3 mm
08:30 PM 81.4°F27.4°C 77.5°F25.3°C 88% Calm Calm -- 29.90 in1012.5 mb - 0.00 in0.0 mm 0.17 in4.3 mm
08:40 PM 80.9°F27.2°C 77.4°F25.2°C 89% Calm Calm -- 29.90 in1012.5 mb - 0.00 in0.0 mm 0.17 in4.3 mm
08:50 PM 80.3°F26.8°C 77.4°F25.2°C 91% Calm Calm -- 29.90 in1012.5 mb - 0.00 in0.0 mm 0.17 in4.3 mm
09:00 PM 79.6°F26.4°C 77.1°F25.1°C 92% Calm Calm -- 29.90 in1012.5 mb - 0.00 in0.0 mm 0.17 in4.3 mm
09:10 PM 79.7°F26.5°C 77.2°F25.1°C 92% Calm Calm -- 29.90 in1012.5 mb - 0.00 in0.0 mm 0.17 in4.3 mm
09:20 PM 79.2°F26.2°C 76.7°F24.8°C 92% Calm Calm -- 29.90 in1012.5 mb - 0.00 in0.0 mm 0.17 in4.3 mm
09:30 PM 79.0°F26.1°C 76.8°F24.9°C 93% 1.2 mph N1.9 kmh N 2.3 mph3.7 kmh 29.89 in1012.2 mb - 0.00 in0.0 mm 0.17 in4.3 mm
09:40 PM 78.4°F25.8°C 76.5°F24.7°C 94% Calm Calm -- 29.90 in1012.5 mb - 0.00 in0.0 mm 0.17 in4.3 mm
09:50 PM 78.0°F25.6°C 76.4°F24.7°C 95% Calm Calm -- 29.89 in1012.2 mb - 0.00 in0.0 mm 0.17 in4.3 mm
10:00 PM 78.0°F25.6°C 76.5°F24.7°C 95% Calm Calm -- 29.90 in1012.5 mb - 0.00 in0.0 mm 0.17 in4.3 mm
10:10 PM 77.5°F25.3°C 76.0°F24.4°C 95% Calm Calm -- 29.90 in1012.5 mb - 0.00 in0.0 mm 0.17 in4.3 mm
10:20 PM 77.2°F25.1°C 75.7°F24.3°C 95% 1.2 mph N1.9 kmh N 1.2 mph1.9 kmh 29.90 in1012.5 mb - 0.00 in0.0 mm 0.17 in4.3 mm
10:30 PM 77.0°F25.0°C 75.5°F24.2°C 95% Calm Calm 1.2 mph1.9 kmh 29.91 in1012.9 mb - 0.00 in0.0 mm 0.17 in4.3 mm
10:40 PM 76.6°F24.8°C 75.1°F23.9°C 95% Calm Calm -- 29.91 in1012.9 mb - 0.00 in0.0 mm 0.17 in4.3 mm
10:50 PM 76.4°F24.7°C 74.9°F23.8°C 95% Calm Calm -- 29.91 in1012.9 mb - 0.00 in0.0 mm 0.17 in4.3 mm
11:00 PM 76.3°F24.6°C 74.8°F23.8°C 95% Calm Calm -- 29.91 in1012.9 mb - 0.00 in0.0 mm 0.17 in4.3 mm
11:10 PM 75.9°F24.4°C 74.4°F23.6°C 95% Calm Calm -- 29.91 in1012.9 mb - 0.00 in0.0 mm 0.17 in4.3 mm
11:20 PM 76.0°F24.4°C 74.5°F23.6°C 95% 1.2 mph N1.9 kmh N 2.3 mph3.7 kmh 29.91 in1012.9 mb - 0.00 in0.0 mm 0.17 in4.3 mm
11:30 PM 76.0°F24.4°C 74.5°F23.6°C 95% Calm Calm -- 29.91 in1012.9 mb - 0.00 in0.0 mm 0.17 in4.3 mm
11:40 PM 76.0°F24.4°C 74.1°F23.4°C 94% Calm Calm -- 29.91 in1012.9 mb - 0.00 in0.0 mm 0.17 in4.3 mm
11:50 PM 75.6°F24.2°C 73.8°F23.2°C 94% Calm Calm -- 29.91 in1012.9 mb - 0.00 in0.0 mm 0.17 in4.3 mm